Time;durP1;ratioP1;P1;durP2;ratioP2;P2;SDS_P1;SDS_P2;PMS_P1;PMS_P2;Temp;Humidity;BMP_temperature;BMP_pressure;BME280_temperature;BME280_humidity;BME280_pressure;Samples;Min_cycle;Max_cycle;Signal;HPM_P1;HPM_P2
2021/03/06 00:00:57;;;;;;;0.90;0.52;;;21.90;47.30;;;;;;5097582;28;20024;-33
2021/03/06 00:03:23;;;;;;;1.08;0.70;;;21.90;47.20;;;;;;5096996;28;20079;-33
2021/03/06 00:05:49;;;;;;;1.13;0.57;;;21.90;47.20;;;;;;5090245;28;20063;-33
2021/03/06 00:08:15;;;;;;;0.85;0.50;;;21.90;47.20;;;;;;5094025;28;20040;-33
2021/03/06 00:10:41;;;;;;;2.03;0.60;;;21.90;47.10;;;;;;5102775;28;20369;-33
2021/03/06 00:13:08;;;;;;;2.60;0.50;;;21.90;47.00;;;;;;5093267;28;20032;-33
2021/03/06 00:15:34;;;;;;;0.80;0.60;;;21.90;47.10;;;;;;5086491;28;20040;-34
2021/03/06 00:18:00;;;;;;;1.70;0.93;;;21.90;47.10;;;;;;5102540;28;20091;-33
2021/03/06 00:20:26;;;;;;;1.23;0.80;;;21.90;47.00;;;;;;5084127;28;20029;-33
2021/03/06 00:22:53;;;;;;;2.55;0.85;;;21.90;47.00;;;;;;5082318;28;20040;-33
2021/03/06 00:25:19;;;;;;;1.88;0.80;;;21.90;46.90;;;;;;5087424;28;20798;-33
2021/03/06 00:27:45;;;;;;;1.45;1.08;;;21.90;46.90;;;;;;5102067;28;20040;-33
2021/03/06 00:30:13;;;;;;;1.92;1.20;;;21.90;46.90;;;;;;5082649;28;20031;-34
2021/03/06 00:32:39;;;;;;;3.95;1.30;;;21.90;46.80;;;;;;5076295;28;20039;-33
2021/03/06 00:35:06;;;;;;;2.17;1.20;;;21.90;46.90;;;;;;5068046;28;20051;-33
2021/03/06 00:37:33;;;;;;;1.83;1.27;;;21.90;46.80;;;;;;5067412;28;20420;-33
2021/03/06 00:39:59;;;;;;;4.37;1.33;;;21.90;46.80;;;;;;5083277;28;20050;-33
2021/03/06 00:42:25;;;;;;;3.72;1.38;;;21.90;46.70;;;;;;5085507;28;20035;-33
2021/03/06 00:44:52;;;;;;;1.60;1.45;;;21.90;46.70;;;;;;5091286;28;20020;-34
2021/03/06 00:47:18;;;;;;;2.95;1.50;;;21.90;46.70;;;;;;5094760;28;20024;-33
2021/03/06 00:49:44;;;;;;;1.73;1.40;;;21.90;46.60;;;;;;5090259;28;20024;-33
2021/03/06 00:52:10;;;;;;;2.85;1.70;;;21.90;46.60;;;;;;5098186;28;20023;-33
2021/03/06 00:54:36;;;;;;;4.53;1.80;;;21.90;46.60;;;;;;5085834;28;20101;-33
2021/03/06 00:57:03;;;;;;;2.33;1.83;;;21.90;46.50;;;;;;5091760;28;20035;-33
2021/03/06 00:59:29;;;;;;;2.05;1.67;;;21.90;46.50;;;;;;5091588;28;20021;-34
2021/03/06 01:01:55;;;;;;;2.20;1.55;;;21.90;46.60;;;;;;5087465;28;20405;-33
2021/03/06 01:04:21;;;;;;;4.32;1.67;;;21.90;46.60;;;;;;5098656;28;20024;-33
2021/03/06 01:06:47;;;;;;;2.50;1.80;;;21.90;46.60;;;;;;5085790;28;20045;-33
2021/03/06 01:09:14;;;;;;;2.90;2.00;;;21.90;46.50;;;;;;5102195;28;20501;-33
2021/03/06 01:11:40;;;;;;;2.78;1.90;;;21.90;46.50;;;;;;5102441;28;20028;-33
2021/03/06 01:14:06;;;;;;;3.03;2.00;;;21.90;46.60;;;;;;5083011;28;20047;-33
2021/03/06 01:16:32;;;;;;;7.60;2.10;;;21.90;46.50;;;;;;5081542;28;20047;-33
2021/03/06 01:18:58;;;;;;;4.15;1.98;;;21.90;46.60;;;;;;5084249;28;20051;-33
2021/03/06 01:21:24;;;;;;;2.42;2.00;;;21.90;46.70;;;;;;5099797;28;20088;-33
2021/03/06 01:23:51;;;;;;;3.22;1.95;;;21.90;46.70;;;;;;5082287;28;20052;-33
2021/03/06 01:26:17;;;;;;;2.60;2.28;;;21.90;46.80;;;;;;5082440;28;20433;-37
2021/03/06 01:28:43;;;;;;;2.63;2.08;;;21.90;46.80;;;;;;5083963;28;20036;-33
2021/03/06 01:31:09;;;;;;;3.15;2.30;;;21.90;46.70;;;;;;5079997;28;20048;-33
2021/03/06 01:33:35;;;;;;;2.38;1.95;;;21.90;46.70;;;;;;5096669;28;20048;-33
2021/03/06 01:36:02;;;;;;;4.18;2.28;;;21.90;46.70;;;;;;5075648;28;20029;-33
2021/03/06 01:38:28;;;;;;;3.60;2.58;;;21.90;46.70;;;;;;5098817;28;20028;-33
2021/03/06 01:40:54;;;;;;;2.92;2.60;;;21.90;46.70;;;;;;5098946;28;20837;-33
2021/03/06 01:43:21;;;;;;;3.13;2.38;;;21.90;46.70;;;;;;5094456;28;20071;-33
2021/03/06 01:45:47;;;;;;;2.50;2.30;;;21.90;46.60;;;;;;5094813;28;20136;-33
2021/03/06 01:48:13;;;;;;;3.05;2.50;;;21.90;46.60;;;;;;5088096;28;20054;-33
2021/03/06 01:50:41;;;;;;;2.78;2.45;;;21.90;46.70;;;;;;5098709;28;20044;-33
2021/03/06 01:53:08;;;;;;;3.10;2.40;;;21.90;46.60;;;;;;5097276;28;20107;-33
2021/03/06 01:55:37;;;;;;;3.45;2.63;;;21.90;46.60;;;;;;5072924;28;20048;-33
2021/03/06 01:58:04;;;;;;;4.32;2.42;;;21.90;46.60;;;;;;5096598;28;20119;-33
2021/03/06 02:00:30;;;;;;;3.53;2.47;;;21.90;46.60;;;;;;5068746;28;20321;-33
2021/03/06 02:02:57;;;;;;;3.58;2.85;;;21.90;46.70;;;;;;5094200;28;20028;-33
2021/03/06 02:05:23;;;;;;;3.08;2.58;;;21.90;46.60;;;;;;5096008;28;20821;-33
2021/03/06 02:07:49;;;;;;;3.67;2.42;;;21.90;46.70;;;;;;5104275;28;20084;-33
2021/03/06 02:10:17;;;;;;;3.40;2.30;;;21.90;46.70;;;;;;5088695;28;20670;-33
2021/03/06 02:12:56;;;;;;;2.88;2.55;;;21.90;46.70;;;;;;5067565;28;20021;-33
2021/03/06 02:15:59;;;;;;;4.13;2.80;;;21.90;46.70;;;;;;5085156;28;20045;-33
2021/03/06 02:18:35;;;;;;;2.97;2.30;;;21.90;46.60;;;;;;5085026;28;20088;-33
2021/03/06 02:21:05;;;;;;;3.97;3.00;;;21.90;46.70;;;;;;5051798;28;20036;-33
2021/03/06 02:24:08;;;;;;;3.35;2.63;;;21.90;46.70;;;;;;5085309;28;20033;-33
2021/03/06 02:26:53;;;;;;;3.35;2.70;;;21.90;46.70;;;;;;5085166;28;20501;-33
2021/03/06 02:29:40;;;;;;;2.88;2.63;;;21.80;46.60;;;;;;5092031;28;20028;-33
2021/03/06 02:32:15;;;;;;;3.03;2.60;;;21.90;46.70;;;;;;5095077;28;20519;-33
2021/03/06 02:34:46;;;;;;;3.38;3.03;;;21.80;46.70;;;;;;5084842;28;20139;-33
2021/03/06 02:37:12;;;;;;;2.67;2.47;;;21.90;46.70;;;;;;5063101;28;20027;-33
2021/03/06 02:39:48;;;;;;;2.95;2.60;;;21.90;46.70;;;;;;5050065;28;20028;-33
2021/03/06 02:42:16;;;;;;;3.65;2.47;;;21.90;46.70;;;;;;5067260;28;20029;-33
2021/03/06 02:44:42;;;;;;;3.33;2.80;;;21.80;46.60;;;;;;5066685;28;20107;-33
2021/03/06 02:47:09;;;;;;;3.22;2.92;;;21.80;46.60;;;;;;5066964;28;20028;-33
2021/03/06 02:49:35;;;;;;;3.10;2.40;;;21.90;46.70;;;;;;5083072;28;20098;-35
2021/03/06 02:52:01;;;;;;;4.05;2.78;;;21.80;46.60;;;;;;5104547;28;20488;-34
2021/03/06 02:54:28;;;;;;;3.73;3.07;;;21.80;46.60;;;;;;5105044;28;20047;-33
2021/03/06 02:56:54;;;;;;;3.30;2.90;;;21.80;46.60;;;;;;5103257;28;20070;-33
2021/03/06 02:59:39;;;;;;;3.55;2.90;;;21.80;46.60;;;;;;5069515;28;20069;-33
2021/03/06 03:02:40;;;;;;;4.55;3.25;;;21.80;46.70;;;;;;5076469;28;20020;-38
2021/03/06 03:05:36;;;;;;;4.07;3.10;;;21.80;46.50;;;;;;5002915;28;20120;-33
2021/03/06 03:08:10;;;;;;;4.03;3.28;;;21.80;46.60;;;;;;4985745;28;20061;-33
2021/03/06 03:10:41;;;;;;;3.70;3.03;;;21.80;46.70;;;;;;4984610;28;20173;-33
2021/03/06 03:13:10;;;;;;;3.88;3.30;;;21.80;46.70;;;;;;4985718;28;20599;-33
2021/03/06 03:15:50;;;;;;;3.63;3.03;;;21.80;46.60;;;;;;5004648;28;20188;-33
2021/03/06 03:18:27;;;;;;;4.80;3.30;;;21.80;46.60;;;;;;5003109;28;20030;-33
2021/03/06 03:20:55;;;;;;;4.22;3.10;;;21.80;46.70;;;;;;5004414;28;20049;-33
2021/03/06 03:23:34;;;;;;;3.78;3.13;;;21.80;46.60;;;;;;5021297;28;20029;-33
2021/03/06 03:26:00;;;;;;;4.60;3.42;;;21.80;46.70;;;;;;5020304;28;20030;-33
2021/03/06 03:28:28;;;;;;;4.03;3.30;;;21.80;47.20;;;;;;4992578;28;20037;-33
2021/03/06 03:30:57;;;;;;;4.47;3.70;;;21.80;46.70;;;;;;5002934;28;20068;-33
2021/03/06 03:33:23;;;;;;;4.47;3.60;;;21.80;46.70;;;;;;4989034;28;20045;-33
2021/03/06 03:35:49;;;;;;;4.00;3.55;;;21.80;46.70;;;;;;5000337;28;20044;-33
2021/03/06 03:38:16;;;;;;;3.63;3.25;;;21.80;46.70;;;;;;5014138;28;20053;-32
2021/03/06 03:40:42;;;;;;;4.60;3.35;;;21.80;46.60;;;;;;5025337;28;20111;-33
2021/03/06 03:43:08;;;;;;;4.47;3.40;;;21.80;46.70;;;;;;5073758;28;20080;-33
2021/03/06 03:45:34;;;;;;;3.88;3.08;;;21.80;46.70;;;;;;5073303;28;20051;-33
2021/03/06 03:48:01;;;;;;;5.03;3.70;;;21.80;46.70;;;;;;5053758;28;20819;-33
2021/03/06 03:50:27;;;;;;;3.90;3.07;;;21.80;46.70;;;;;;5085570;28;20095;-33
2021/03/06 03:52:53;;;;;;;4.55;3.70;;;21.80;46.70;;;;;;5082347;28;20032;-33
2021/03/06 03:55:20;;;;;;;3.73;3.37;;;21.80;46.70;;;;;;5083590;28;20107;-33
2021/03/06 03:57:46;;;;;;;4.95;3.58;;;21.80;46.70;;;;;;5086862;28;20084;-33
2021/03/06 04:00:14;;;;;;;5.53;3.83;;;21.80;46.70;;;;;;5086323;28;20024;-33
2021/03/06 04:02:41;;;;;;;3.97;3.42;;;21.80;46.70;;;;;;5088261;28;20649;-32
2021/03/06 04:05:08;;;;;;;4.80;4.05;;;21.80;46.70;;;;;;5069382;28;20028;-33
2021/03/06 04:07:48;;;;;;;4.40;3.70;;;21.80;46.70;;;;;;5072600;28;20052;-33
2021/03/06 04:10:15;;;;;;;6.40;4.18;;;21.90;46.80;;;;;;5090637;28;20032;-33
2021/03/06 04:12:42;;;;;;;4.85;3.75;;;21.90;46.70;;;;;;5088350;28;20017;-33
2021/03/06 04:15:09;;;;;;;4.40;3.75;;;21.90;46.70;;;;;;5087044;28;20030;-32
2021/03/06 04:17:35;;;;;;;4.38;3.67;;;21.90;46.70;;;;;;5089205;28;20119;-33
2021/03/06 04:20:06;;;;;;;4.30;3.90;;;21.90;46.80;;;;;;5070945;28;20094;-33
2021/03/06 04:22:32;;;;;;;6.15;4.13;;;21.90;46.80;;;;;;5088813;28;20056;-32
2021/03/06 04:24:58;;;;;;;5.25;3.85;;;21.90;46.80;;;;;;5096692;28;20032;-33
2021/03/06 04:27:24;;;;;;;4.45;3.65;;;21.90;46.80;;;;;;5075888;28;20024;-32
2021/03/06 04:29:50;;;;;;;9.07;4.38;;;21.90;46.80;;;;;;5090936;28;20032;-33
2021/03/06 04:32:17;;;;;;;5.13;3.97;;;21.90;46.80;;;;;;5089684;28;20055;-33
2021/03/06 04:34:43;;;;;;;4.53;3.92;;;21.90;46.80;;;;;;5078472;28;20037;-33
2021/03/06 04:37:09;;;;;;;5.15;4.20;;;21.90;46.70;;;;;;5093129;28;20028;-33
2021/03/06 04:39:35;;;;;;;4.85;4.15;;;21.90;46.80;;;;;;5082162;28;20040;-33
2021/03/06 04:42:02;;;;;;;6.47;4.15;;;21.90;46.80;;;;;;5082164;28;20039;-33
2021/03/06 04:44:28;;;;;;;5.13;4.22;;;21.90;46.80;;;;;;5102354;28;20035;-33
2021/03/06 04:46:54;;;;;;;7.68;4.43;;;21.90;46.80;;;;;;5102121;28;20036;-33
2021/03/06 04:49:20;;;;;;;4.90;4.03;;;21.90;46.80;;;;;;5102369;28;20051;-33
2021/03/06 04:51:46;;;;;;;5.35;4.40;;;21.90;46.70;;;;;;5102663;28;20039;-33
2021/03/06 04:54:12;;;;;;;6.07;4.78;;;21.90;46.80;;;;;;5102613;28;20134;-33
2021/03/06 04:56:39;;;;;;;5.18;4.22;;;21.90;46.80;;;;;;5102411;28;20120;-33
2021/03/06 04:59:05;;;;;;;5.70;4.38;;;21.90;46.80;;;;;;5084019;28;20797;-33
2021/03/06 05:01:31;;;;;;;5.80;4.72;;;21.90;46.70;;;;;;5096933;28;20138;-33
2021/03/06 05:03:57;;;;;;;5.55;4.40;;;21.90;46.80;;;;;;5097983;28;20031;-33
2021/03/06 05:06:23;;;;;;;5.07;4.57;;;21.90;46.80;;;;;;5102348;28;20028;-33
2021/03/06 05:08:49;;;;;;;5.85;4.75;;;21.90;46.70;;;;;;5098575;28;20047;-33
2021/03/06 05:11:15;;;;;;;6.18;4.88;;;21.90;46.70;;;;;;5101324;28;20507;-33
2021/03/06 05:13:42;;;;;;;5.95;4.50;;;21.90;46.70;;;;;;5097427;28;20032;-33
2021/03/06 05:16:08;;;;;;;5.63;4.80;;;21.90;46.70;;;;;;5096920;28;20028;-33
2021/03/06 05:18:34;;;;;;;6.40;4.90;;;21.90;46.60;;;;;;5086504;28;20029;-33
2021/03/06 05:21:00;;;;;;;5.28;4.78;;;21.90;46.70;;;;;;5096102;28;20027;-33
2021/03/06 05:23:27;;;;;;;6.95;4.80;;;21.90;46.70;;;;;;5085098;28;20039;-33
2021/03/06 05:25:53;;;;;;;6.68;4.93;;;21.90;46.80;;;;;;5092680;28;20024;-33
2021/03/06 05:28:22;;;;;;;5.70;4.75;;;21.90;46.70;;;;;;5093566;28;20042;-32
2021/03/06 05:30:50;;;;;;;5.93;4.70;;;21.90;46.70;;;;;;5101502;28;20088;-33
2021/03/06 05:33:17;;;;;;;6.38;4.82;;;21.90;46.70;;;;;;5088488;28;20032;-33
2021/03/06 05:35:43;;;;;;;6.22;5.25;;;21.90;46.70;;;;;;5089859;28;20047;-33
2021/03/06 05:38:10;;;;;;;6.35;5.05;;;21.90;46.70;;;;;;5052058;28;20106;-33
2021/03/06 05:40:41;;;;;;;6.18;5.22;;;21.90;46.70;;;;;;5065440;28;20063;-33
2021/03/06 05:43:08;;;;;;;5.72;4.70;;;21.90;46.60;;;;;;5065533;28;20025;-33
2021/03/06 05:45:34;;;;;;;4.95;4.43;;;21.90;46.60;;;;;;5047663;28;20028;-33
2021/03/06 05:48:00;;;;;;;5.68;4.63;;;21.90;46.60;;;;;;5059469;28;20017;-33
2021/03/06 05:50:26;;;;;;;6.13;5.00;;;21.90;46.70;;;;;;5095857;28;20034;-33
2021/03/06 05:52:53;;;;;;;5.87;5.23;;;21.90;46.60;;;;;;5087403;28;20016;-33
2021/03/06 05:55:19;;;;;;;6.65;5.22;;;21.90;46.70;;;;;;5097102;28;20435;-33
2021/03/06 05:57:45;;;;;;;6.07;4.88;;;21.90;46.60;;;;;;5067380;28;20084;-33
2021/03/06 06:00:15;;;;;;;6.57;5.57;;;21.90;46.60;;;;;;5099535;28;20096;-33
2021/03/06 06:02:41;;;;;;;5.57;4.88;;;21.90;46.60;;;;;;5090469;28;20031;-33
2021/03/06 06:05:08;;;;;;;6.35;5.10;;;21.90;46.70;;;;;;5067723;28;20070;-33
2021/03/06 06:07:37;;;;;;;6.70;5.20;;;21.90;46.70;;;;;;5085403;28;20041;-33
2021/03/06 06:10:04;;;;;;;5.50;4.88;;;21.90;46.70;;;;;;5084759;28;20040;-32
2021/03/06 06:12:30;;;;;;;6.40;4.80;;;21.90;46.70;;;;;;5085334;28;20020;-33
2021/03/06 06:14:56;;;;;;;5.65;5.05;;;21.90;46.70;;;;;;5066864;28;20040;-33
2021/03/06 06:17:23;;;;;;;5.65;4.55;;;21.90;46.70;;;;;;5085440;28;20024;-33
2021/03/06 06:19:49;;;;;;;6.55;5.28;;;21.90;46.70;;;;;;5085125;28;20036;-33
2021/03/06 06:22:22;;;;;;;5.65;4.90;;;21.90;46.70;;;;;;5085096;28;20025;-33
2021/03/06 06:24:50;;;;;;;5.50;4.88;;;21.90;46.70;;;;;;5085051;28;20763;-33
2021/03/06 06:27:22;;;;;;;6.90;5.30;;;21.90;46.70;;;;;;5097124;28;20032;-33
2021/03/06 06:29:48;;;;;;;6.47;5.40;;;21.90;46.70;;;;;;5104785;28;20038;-33
2021/03/06 06:32:16;;;;;;;5.53;4.93;;;21.90;46.70;;;;;;5093832;28;20023;-33
2021/03/06 06:34:43;;;;;;;5.50;4.95;;;21.90;46.70;;;;;;5084762;28;20032;-32
2021/03/06 06:37:16;;;;;;;5.30;4.80;;;21.90;46.70;;;;;;5065906;28;20035;-32
2021/03/06 06:39:43;;;;;;;6.05;5.25;;;21.90;46.80;;;;;;5084676;28;20039;-33
2021/03/06 06:42:09;;;;;;;5.97;5.07;;;21.90;46.80;;;;;;5075958;28;20033;-33
2021/03/06 06:44:36;;;;;;;6.18;5.40;;;21.90;46.80;;;;;;5084520;28;20055;-33
2021/03/06 06:47:13;;;;;;;6.73;5.20;;;21.90;46.80;;;;;;5084588;28;20028;-34
2021/03/06 06:49:51;;;;;;;5.97;4.85;;;21.90;46.90;;;;;;5084367;28;20033;-33
2021/03/06 06:52:18;;;;;;;5.30;4.80;;;21.80;46.90;;;;;;5084532;28;20036;-33
2021/03/06 06:54:58;;;;;;;6.53;5.00;;;21.80;46.90;;;;;;5084514;28;20037;-33
2021/03/06 06:57:27;;;;;;;5.13;4.60;;;21.90;46.90;;;;;;5084618;28;20024;-33
2021/03/06 07:00:04;;;;;;;5.95;4.97;;;21.90;46.90;;;;;;5096223;28;20028;-33
2021/03/06 07:02:30;;;;;;;6.00;4.67;;;21.80;46.90;;;;;;5090670;28;20024;-33
2021/03/06 07:05:01;;;;;;;5.38;4.78;;;21.80;47.00;;;;;;5084493;28;20036;-33
2021/03/06 07:07:36;;;;;;;5.60;4.78;;;21.80;47.00;;;;;;5078808;28;20032;-33
2021/03/06 07:10:18;;;;;;;5.43;4.68;;;21.80;47.00;;;;;;5087676;28;20025;-33
2021/03/06 07:13:01;;;;;;;5.32;4.55;;;21.80;47.50;;;;;;5064033;28;20037;-33
2021/03/06 07:15:29;;;;;;;6.82;4.78;;;21.80;47.00;;;;;;5064090;28;20048;-33
2021/03/06 07:17:56;;;;;;;5.50;4.40;;;21.80;46.90;;;;;;5075536;28;20031;-33
2021/03/06 07:20:22;;;;;;;4.90;4.38;;;21.80;46.90;;;;;;5104002;28;20028;-33
2021/03/06 07:22:53;;;;;;;5.45;4.80;;;21.80;46.90;;;;;;5104296;28;20051;-33
2021/03/06 07:25:20;;;;;;;4.70;4.13;;;21.80;47.00;;;;;;5103884;28;20077;-33
2021/03/06 07:27:46;;;;;;;5.32;4.57;;;21.80;47.00;;;;;;5103926;28;20499;-33
2021/03/06 07:30:14;;;;;;;4.85;4.28;;;21.80;46.90;;;;;;5103310;28;20058;-33
2021/03/06 07:32:41;;;;;;;5.55;4.55;;;21.80;47.00;;;;;;5089043;28;20447;-33
2021/03/06 07:35:09;;;;;;;4.85;4.07;;;21.80;46.90;;;;;;5083693;28;20086;-33
2021/03/06 07:37:35;;;;;;;4.53;4.00;;;21.80;47.00;;;;;;5085765;28;20028;-33
2021/03/06 07:40:04;;;;;;;5.50;4.13;;;21.80;46.90;;;;;;5055498;28;20058;-33
2021/03/06 07:42:52;;;;;;;4.75;4.03;;;21.80;46.90;;;;;;5086732;28;20016;-33
2021/03/06 07:45:27;;;;;;;4.50;3.90;;;21.80;46.90;;;;;;5049537;28;20032;-33
2021/03/06 07:48:00;;;;;;;5.10;3.97;;;21.80;47.00;;;;;;5083328;28;20071;-32
2021/03/06 07:50:28;;;;;;;4.53;3.88;;;21.80;47.00;;;;;;5066737;28;20033;-33
2021/03/06 07:52:56;;;;;;;5.03;3.80;;;21.80;46.90;;;;;;5080524;28;20024;-33
2021/03/06 07:55:22;;;;;;;5.15;4.03;;;21.80;46.90;;;;;;5077233;28;20066;-33
2021/03/06 07:58:01;;;;;;;4.70;3.78;;;21.80;46.80;;;;;;5048014;28;20771;-33
2021/03/06 08:00:53;;;;;;;4.63;3.83;;;21.80;46.90;;;;;;5100003;28;20042;-33
2021/03/06 08:03:30;;;;;;;5.30;3.78;;;21.80;46.80;;;;;;5063107;28;20059;-33
2021/03/06 08:06:00;;;;;;;4.75;4.00;;;21.80;46.70;;;;;;5096145;28;20060;-33
2021/03/06 08:08:41;;;;;;;4.50;3.83;;;21.80;46.80;;;;;;5102950;28;20048;-32
2021/03/06 08:11:21;;;;;;;3.75;3.38;;;21.80;46.80;;;;;;5103245;28;20055;-33
2021/03/06 08:13:51;;;;;;;4.10;3.65;;;21.80;46.70;;;;;;5083637;28;20040;-32
2021/03/06 08:16:30;;;;;;;4.50;3.60;;;21.80;46.70;;;;;;5082781;28;20036;-33
2021/03/06 08:19:14;;;;;;;4.53;3.78;;;21.80;46.70;;;;;;5098175;28;20032;-33
2021/03/06 08:21:41;;;;;;;4.43;3.50;;;21.80;46.80;;;;;;5082253;28;20036;-33
2021/03/06 08:24:18;;;;;;;3.90;3.17;;;21.80;46.80;;;;;;5094357;28;20090;-33
2021/03/06 08:26:53;;;;;;;5.20;3.55;;;21.70;46.90;;;;;;5101873;28;20039;-33
2021/03/06 08:29:22;;;;;;;3.97;3.22;;;21.70;47.00;;;;;;5086637;28;20020;-33
2021/03/06 08:31:56;;;;;;;4.68;3.40;;;21.70;47.00;;;;;;5092470;28;20028;-33
2021/03/06 08:34:39;;;;;;;4.32;3.50;;;21.70;47.10;;;;;;5091182;28;20040;-33
2021/03/06 08:37:19;;;;;;;3.83;3.28;;;21.70;47.00;;;;;;5074322;28;20559;-33
2021/03/06 08:39:59;;;;;;;5.32;3.33;;;21.70;47.00;;;;;;5092901;28;20028;-33
2021/03/06 08:42:49;;;;;;;3.35;2.90;;;21.70;46.90;;;;;;5096365;28;20028;-33
2021/03/06 08:45:19;;;;;;;3.42;3.10;;;21.70;47.00;;;;;;5060669;28;20039;-32
2021/03/06 08:47:52;;;;;;;3.78;3.30;;;21.60;46.90;;;;;;5092780;28;20031;-33
2021/03/06 08:50:20;;;;;;;3.78;2.80;;;21.60;46.90;;;;;;5082006;28;20036;-33
2021/03/06 08:53:02;;;;;;;3.40;3.10;;;21.60;46.90;;;;;;5092360;28;20032;-33
2021/03/06 08:55:33;;;;;;;3.60;3.03;;;21.60;46.90;;;;;;5101972;28;20036;-33
2021/03/06 08:58:06;;;;;;;3.03;2.60;;;21.60;46.90;;;;;;5098898;28;20031;-32
2021/03/06 09:01:00;;;;;;;4.20;3.10;;;21.60;46.80;;;;;;5085591;28;20036;-33
2021/03/06 09:03:27;;;;;;;3.08;2.65;;;21.60;47.00;;;;;;5082243;28;20039;-33
2021/03/06 09:06:00;;;;;;;3.63;2.65;;;21.60;46.80;;;;;;5074344;28;20016;-33
2021/03/06 09:08:27;;;;;;;3.50;2.80;;;21.50;46.70;;;;;;5088454;28;20040;-33
2021/03/06 09:10:57;;;;;;;3.28;2.92;;;21.50;46.60;;;;;;5103871;28;20024;-33
2021/03/06 09:13:25;;;;;;;4.38;3.20;;;21.50;46.70;;;;;;5105572;28;20035;-33
2021/03/06 09:16:00;;;;;;;3.00;2.55;;;21.50;46.70;;;;;;5095991;28;20061;-33
2021/03/06 09:18:31;;;;;;;3.78;2.85;;;21.50;46.70;;;;;;5096202;28;20028;-33
2021/03/06 09:21:03;;;;;;;3.22;2.63;;;21.50;46.70;;;;;;5082132;28;20036;-33
2021/03/06 09:23:38;;;;;;;2.90;2.60;;;21.50;46.70;;;;;;5098952;28;20478;-33
2021/03/06 09:26:17;;;;;;;2.97;2.58;;;21.50;46.70;;;;;;5090315;28;20119;-33
2021/03/06 09:28:44;;;;;;;2.80;2.58;;;21.50;46.80;;;;;;5102984;28;20086;-32
2021/03/06 09:31:21;;;;;;;3.28;2.67;;;21.40;46.70;;;;;;5101248;28;20024;-32
2021/03/06 09:33:47;;;;;;;3.17;2.58;;;21.40;46.70;;;;;;5101486;28;20526;-34
2021/03/06 09:36:21;;;;;;;2.72;2.25;;;21.40;46.70;;;;;;5096328;28;20041;-33
2021/03/06 09:38:54;;;;;;;2.88;2.40;;;21.40;46.80;;;;;;5101542;28;20101;-33
2021/03/06 09:41:21;;;;;;;3.05;2.40;;;21.40;46.80;;;;;;5092843;28;20032;-32
2021/03/06 09:43:55;;;;;;;3.33;2.45;;;21.40;46.70;;;;;;5105300;28;20024;-33
2021/03/06 09:46:25;;;;;;;3.35;2.50;;;21.40;46.80;;;;;;5091415;28;20443;-33
2021/03/06 09:49:07;;;;;;;3.08;2.58;;;21.30;46.60;;;;;;5093482;28;20458;-33
2021/03/06 09:51:53;;;;;;;3.42;2.50;;;21.30;46.70;;;;;;5097886;28;20024;-33
2021/03/06 09:54:24;;;;;;;2.88;2.13;;;21.30;46.60;;;;;;5086350;28;20572;-32
2021/03/06 09:56:54;;;;;;;3.42;2.30;;;21.30;46.60;;;;;;5102185;28;20099;-33
2021/03/06 09:59:21;;;;;;;2.95;2.63;;;21.30;46.60;;;;;;5091137;28;20027;-33
2021/03/06 10:01:47;;;;;;;2.55;2.15;;;21.30;46.70;;;;;;5078096;28;20027;-33
2021/03/06 10:04:23;;;;;;;2.53;2.00;;;21.30;46.70;;;;;;5098445;28;20039;-33
2021/03/06 10:06:53;;;;;;;3.03;2.40;;;21.30;46.80;;;;;;5070555;28;20535;-33
2021/03/06 10:09:20;;;;;;;2.70;2.17;;;21.20;46.60;;;;;;5061246;28;20058;-32
2021/03/06 10:11:51;;;;;;;2.80;2.45;;;21.20;46.70;;;;;;5097229;28;20775;-33
2021/03/06 10:14:22;;;;;;;2.70;2.40;;;21.20;46.70;;;;;;5073282;28;20620;-32
2021/03/06 10:16:50;;;;;;;2.50;2.10;;;21.20;46.70;;;;;;5058036;28;20100;-33
2021/03/06 10:19:18;;;;;;;2.95;2.22;;;21.20;46.80;;;;;;5099244;28;20124;-32
2021/03/06 10:22:19;;;;;;;;;;;21.20;46.70;;;;;;5094134;28;20016;-32
2021/03/06 10:24:53;;;;;;;2.47;2.17;;;21.10;46.90;;;;;;4986276;28;19949;-33
2021/03/06 10:27:35;;;;;;;2.15;1.92;;;21.10;46.80;;;;;;4997240;28;20061;-32
2021/03/06 10:30:30;;;;;;;2.80;2.30;;;21.10;46.80;;;;;;4993422;28;20045;-32
2021/03/06 10:33:03;;;;;;;2.60;2.35;;;21.10;46.90;;;;;;4968849;28;20046;-32
2021/03/06 10:35:43;;;;;;;2.83;2.25;;;21.10;46.90;;;;;;4997423;28;20049;-32
2021/03/06 10:38:21;;;;;;;3.00;2.30;;;21.10;46.80;;;;;;4995638;28;20030;-33
2021/03/06 10:40:52;;;;;;;2.85;2.25;;;21.10;46.90;;;;;;4985906;28;20138;-33
2021/03/06 10:43:44;;;;;;;2.30;2.00;;;21.00;46.90;;;;;;4992233;28;20475;-33
2021/03/06 10:46:32;;;;;;;2.67;2.20;;;21.00;46.70;;;;;;4987508;28;20049;-32
2021/03/06 10:49:06;;;;;;;3.08;2.15;;;21.00;46.90;;;;;;5001479;28;20049;-33
2021/03/06 10:51:43;;;;;;;2.20;2.00;;;21.00;46.80;;;;;;5001674;28;20047;-33
2021/03/06 10:54:09;;;;;;;2.17;1.98;;;21.00;46.80;;;;;;5001621;28;20842;-33
2021/03/06 10:56:36;;;;;;;4.30;2.17;;;21.00;46.70;;;;;;4976571;28;20034;-32
2021/03/06 10:59:02;;;;;;;2.83;1.92;;;21.00;46.70;;;;;;5061505;28;20100;-33
2021/03/06 11:01:35;;;;;;;2.28;2.00;;;21.00;46.80;;;;;;5085723;28;20032;-33
2021/03/06 11:04:01;;;;;;;2.85;2.15;;;21.00;46.80;;;;;;5104612;28;20031;-32
2021/03/06 11:06:27;;;;;;;2.35;2.05;;;21.00;46.90;;;;;;5088961;28;20020;-32
2021/03/06 11:09:01;;;;;;;2.50;1.95;;;21.00;46.80;;;;;;5066124;28;20048;-33
2021/03/06 11:11:27;;;;;;;2.20;1.90;;;21.00;46.70;;;;;;5097504;28;20055;-33
2021/03/06 11:13:53;;;;;;;2.07;1.60;;;20.90;46.70;;;;;;5094019;28;20099;-32
2021/03/06 11:16:35;;;;;;;2.53;2.15;;;20.90;46.80;;;;;;5096244;28;20036;-32
2021/03/06 11:19:02;;;;;;;2.58;2.20;;;20.90;47.00;;;;;;5082191;28;20020;-32
2021/03/06 11:21:28;;;;;;;2.35;1.90;;;20.90;46.80;;;;;;5090213;28;20047;-32
2021/03/06 11:23:54;;;;;;;2.88;2.20;;;20.90;46.90;;;;;;5093366;28;20099;-33
2021/03/06 11:26:20;;;;;;;2.10;1.90;;;20.90;46.80;;;;;;5088770;28;20036;-32
2021/03/06 11:28:46;;;;;;;2.53;2.10;;;20.90;46.80;;;;;;5082158;28;20028;-33
2021/03/06 11:31:12;;;;;;;2.63;2.00;;;20.90;46.80;;;;;;5093212;28;20028;-32
2021/03/06 11:33:39;;;;;;;3.03;2.38;;;20.90;46.90;;;;;;5094331;28;20065;-32
2021/03/06 11:36:05;;;;;;;2.40;2.00;;;20.90;46.90;;;;;;5085657;28;20028;-32
2021/03/06 11:38:31;;;;;;;1.98;1.75;;;20.90;46.90;;;;;;5098593;28;20036;-32
2021/03/06 11:40:57;;;;;;;2.38;1.70;;;20.80;46.90;;;;;;5089252;28;20036;-33
2021/03/06 11:43:23;;;;;;;3.10;1.98;;;20.90;46.90;;;;;;5097410;28;20354;-32
2021/03/06 11:45:50;;;;;;;2.35;1.95;;;20.80;46.80;;;;;;5094874;28;20452;-32
2021/03/06 11:48:16;;;;;;;3.60;2.10;;;20.80;46.80;;;;;;5103559;28;20051;-33
2021/03/06 11:50:47;;;;;;;2.22;2.03;;;20.80;46.80;;;;;;5086514;28;20031;-32
2021/03/06 11:53:13;;;;;;;2.83;2.17;;;20.80;46.80;;;;;;5089331;28;20487;-33
2021/03/06 11:55:40;;;;;;;2.93;1.53;;;20.80;46.80;;;;;;5097772;28;20041;-32
2021/03/06 11:58:06;;;;;;;2.20;2.00;;;20.80;47.00;;;;;;5102889;28;20485;-32
2021/03/06 12:00:34;;;;;;;2.13;1.80;;;20.80;46.90;;;;;;5090193;28;20169;-32
2021/03/06 12:03:00;;;;;;;2.17;1.90;;;20.80;46.80;;;;;;5088145;28;20032;-32
2021/03/06 12:05:26;;;;;;;2.35;2.03;;;20.80;46.90;;;;;;5096609;28;20032;-33
2021/03/06 12:07:53;;;;;;;2.92;2.17;;;20.70;46.90;;;;;;5095808;28;20075;-32
2021/03/06 12:10:20;;;;;;;2.63;1.75;;;20.70;46.90;;;;;;5101136;28;20032;-32
2021/03/06 12:12:46;;;;;;;2.45;1.95;;;20.70;46.80;;;;;;5070699;28;20035;-32
2021/03/06 12:15:14;;;;;;;2.92;1.90;;;20.70;46.90;;;;;;5088497;28;20032;-33
2021/03/06 12:17:40;;;;;;;2.40;1.70;;;20.70;46.80;;;;;;5094193;28;20039;-33
2021/03/06 12:20:07;;;;;;;1.83;1.27;;;20.70;46.90;;;;;;5094300;28;20440;-33
2021/03/06 12:22:33;;;;;;;2.33;1.85;;;20.70;46.90;;;;;;5100024;28;20031;-32
2021/03/06 12:24:59;;;;;;;3.05;2.03;;;20.70;47.00;;;;;;5081839;28;20028;-32
2021/03/06 12:27:25;;;;;;;2.00;1.70;;;20.70;47.00;;;;;;5090019;28;20033;-32
2021/03/06 12:29:52;;;;;;;2.58;2.20;;;20.70;47.00;;;;;;5101924;28;20035;-32
2021/03/06 12:32:18;;;;;;;1.95;1.75;;;20.60;46.90;;;;;;5089119;28;20024;-33
2021/03/06 12:34:44;;;;;;;2.25;1.73;;;20.60;46.90;;;;;;5096619;28;20040;-32
2021/03/06 12:37:10;;;;;;;2.10;1.80;;;20.60;46.80;;;;;;5080035;28;20092;-32
2021/03/06 12:39:36;;;;;;;2.10;1.83;;;20.60;46.80;;;;;;5065448;28;20054;-32
2021/03/06 12:42:03;;;;;;;2.03;1.67;;;20.60;46.90;;;;;;5095428;28;20082;-32
2021/03/06 12:44:29;;;;;;;2.37;1.93;;;20.60;46.90;;;;;;5097664;28;20024;-32
2021/03/06 12:46:55;;;;;;;2.20;2.00;;;20.60;46.90;;;;;;5085885;28;20695;-32
2021/03/06 12:49:21;;;;;;;2.78;1.88;;;20.60;46.90;;;;;;5102498;28;20047;-32
2021/03/06 12:51:48;;;;;;;2.25;1.70;;;20.60;47.00;;;;;;5092807;28;20032;-32
2021/03/06 12:54:14;;;;;;;2.13;1.60;;;20.60;47.00;;;;;;5090178;28;20032;-33
2021/03/06 12:56:40;;;;;;;2.00;1.65;;;20.60;46.80;;;;;;5087448;28;20564;-33
2021/03/06 12:59:06;;;;;;;2.25;1.63;;;20.60;46.90;;;;;;5101614;28;20024;-32
2021/03/06 13:01:33;;;;;;;1.80;1.50;;;20.60;46.90;;;;;;5088454;28;20447;-32